Allenhurst, Georgia
Current Conditions -  °F | °C
As of 12:58 PM on Thursday 27 Nov 2014 (Local Time) from KLHW Reporting Station
Clear Clear  
Wind Chill: 56°   Ceiling: Unl
Heat Index: 56°   Visibility: 10mi
Dew Point: 29°   Wind: 17mph
Humidity: 36%   Direction: 270°W
Pressure: 30.17"   Gusts: 26mph
Location:  31.78°N, 81.61°W
Report Text: KLHW 271758Z AUTO 27015G23KT 10SM CLR 13/M01 A3017 RMK AO2 PK WND 31028/01 SLP220 T01331014 10134 20050 58014
Loading
Personal Weather Stations






























Interactive Weather Map New forecast layout! Learn more

10-Day Weather Forecast

Advertisements
Track Severe Weather on mobile